Time;durP1;ratioP1;P1;durP2;ratioP2;P2;SDS_P1;SDS_P2;PMS_P1;PMS_P2;Temp;Humidity;BMP_temperature;BMP_pressure;BME280_temperature;BME280_humidity;BME280_pressure;Samples;Min_cycle;Max_cycle;Signal;HPM_P1;HPM_P2
2023/05/04 00:01:17;;;;;;;;;;;;;;;17.29;62.54;100356.44;4400461;32;34092;-86
2023/05/04 00:03:45;;;;;;;;;;;;;;;17.38;62.50;100362.06;4402792;32;34066;-85
2023/05/04 00:06:13;;;;;;;;;;;;;;;17.34;62.68;100359.69;4400968;32;34127;-87
2023/05/04 00:08:41;;;;;;;;;;;;;;;17.18;63.26;100362.44;4400755;32;32966;-86
2023/05/04 00:11:10;;;;;;;;;;;;;;;17.35;62.75;100356.06;4401736;32;33490;-86
2023/05/04 00:13:37;;;;;;;;;;;;;;;17.37;62.96;100357.66;4398173;32;34860;-86
2023/05/04 00:16:05;;;;;;;;;;;;;;;17.56;61.82;100352.00;4399387;32;34005;-86
2023/05/04 00:18:37;;;;;;;;;;;;;;;17.36;62.88;100361.28;4401736;32;33134;-86
2023/05/04 00:21:05;;;;;;;;;;;;;;;17.34;63.13;100351.69;4393712;32;34507;-87
2023/05/04 00:23:32;;;;;;;;;;;;;;;17.20;63.17;100349.88;4388759;32;33094;-86
2023/05/04 00:26:00;;;;;;;;;;;;;;;17.27;63.41;100340.50;4387845;32;32930;-87
2023/05/04 00:28:28;;;;;;;;;;;;;;;17.44;62.96;100343.94;4400896;32;33543;-86
2023/05/04 00:30:56;;;;;;;;;;;;;;;17.49;62.62;100347.16;4400126;32;33229;-86
2023/05/04 00:33:24;;;;;;;;;;;;;;;17.54;62.29;100343.25;4386373;32;34181;-85
2023/05/04 00:35:52;;;;;;;;;;;;;;;17.47;62.61;100347.28;4399525;32;33360;-86
2023/05/04 00:38:21;;;;;;;;;;;;;;;17.54;62.35;100347.72;4398161;32;32571;-85
2023/05/04 00:40:49;;;;;;;;;;;;;;;17.51;62.53;100340.75;4395468;32;32838;-86
2023/05/04 00:43:17;;;;;;;;;;;;;;;17.33;63.09;100339.28;4398794;32;33126;-86
2023/05/04 00:45:44;;;;;;;;;;;;;;;17.43;62.74;100345.75;4400372;32;33386;-86
2023/05/04 00:48:13;;;;;;;;;;;;;;;17.56;62.24;100341.31;4402850;32;32830;-86
2023/05/04 00:50:41;;;;;;;;;;;;;;;17.49;62.43;100348.03;4388558;32;35547;-85
2023/05/04 00:53:09;;;;;;;;;;;;;;;17.56;62.06;100335.97;4401597;32;34252;-85
2023/05/04 00:55:39;;;;;;;;;;;;;;;17.58;61.98;100342.09;4388184;32;33178;-86
2023/05/04 00:58:08;;;;;;;;;;;;;;;17.41;62.57;100339.63;4408938;32;32874;-85
2023/05/04 01:00:35;;;;;;;;;;;;;;;17.46;62.47;100344.69;4393728;32;32647;-85
2023/05/04 01:03:03;;;;;;;;;;;;;;;17.57;61.84;100336.88;4400836;32;33092;-85
2023/05/04 01:05:34;;;;;;;;;;;;;;;17.24;63.02;100337.19;4401056;32;33904;-86
2023/05/04 01:08:05;;;;;;;;;;;;;;;17.35;62.73;100342.72;4400173;32;32602;-87
2023/05/04 01:10:55;;;;;;;;;;;;;;;17.33;62.77;100339.28;4395403;32;34107;-87
2023/05/04 01:13:22;;;;;;;;;;;;;;;17.24;62.82;100342.53;4399481;32;33346;-87
2023/05/04 01:15:51;;;;;;;;;;;;;;;17.41;62.31;100337.81;4394742;32;34665;-85
2023/05/04 01:18:18;;;;;;;;;;;;;;;17.34;62.46;100336.50;4398491;32;32477;-85
2023/05/04 01:20:46;;;;;;;;;;;;;;;17.37;62.40;100341.63;4398374;32;33864;-85
2023/05/04 01:23:15;;;;;;;;;;;;;;;17.33;62.23;100340.12;4387029;32;33952;-85
2023/05/04 01:25:49;;;;;;;;;;;;;;;17.31;62.33;100339.38;4400950;32;34097;-85
2023/05/04 01:28:22;;;;;;;;;;;;;;;17.25;62.41;100339.75;4398447;32;32238;-85
2023/05/04 01:30:50;;;;;;;;;;;;;;;17.31;62.07;100336.69;4386517;32;32987;-85
2023/05/04 01:33:18;;;;;;;;;;;;;;;17.15;62.40;100339.47;4400507;32;33519;-86
2023/05/04 01:35:45;;;;;;;;;;;;;;;17.26;61.70;100333.47;4387797;32;32818;-85
2023/05/04 01:38:13;;;;;;;;;;;;;;;17.07;62.16;100338.22;4402379;32;32589;-85
2023/05/04 01:40:40;;;;;;;;;;;;;;;17.09;62.24;100338.97;4386112;32;33381;-85
2023/05/04 01:43:08;;;;;;;;;;;;;;;17.15;62.19;100331.47;4398179;32;33049;-85
2023/05/04 01:45:37;;;;;;;;;;;;;;;17.11;62.32;100337.09;4398561;32;32693;-85
2023/05/04 01:48:05;;;;;;;;;;;;;;;17.11;62.12;100339.75;4414624;32;33345;-86
2023/05/04 01:50:33;;;;;;;;;;;;;;;17.13;62.13;100338.69;4393052;32;34362;-85
2023/05/04 01:53:02;;;;;;;;;;;;;;;16.84;62.79;100334.31;4386040;32;33104;-85
2023/05/04 01:55:32;;;;;;;;;;;;;;;16.99;62.38;100340.50;4390550;32;35154;-86
2023/05/04 01:58:00;;;;;;;;;;;;;;;16.99;62.36;100333.34;4400870;32;33970;-86
2023/05/04 02:00:27;;;;;;;;;;;;;;;16.97;62.45;100337.94;4399175;32;32952;-86
2023/05/04 02:02:59;;;;;;;;;;;;;;;17.02;62.12;100330.50;4393593;32;33829;-86
2023/05/04 02:05:26;;;;;;;;;;;;;;;16.98;62.22;100325.47;4400500;32;34936;-86
2023/05/04 02:07:55;;;;;;;;;;;;;;;16.87;62.42;100328.81;4401089;32;32888;-86
2023/05/04 02:10:24;;;;;;;;;;;;;;;16.94;62.03;100324.78;4386716;32;33709;-87
2023/05/04 02:12:51;;;;;;;;;;;;;;;16.83;62.18;100330.78;4398795;32;33388;-86
2023/05/04 02:15:19;;;;;;;;;;;;;;;16.75;62.24;100332.19;4399913;32;34521;-87
2023/05/04 02:17:48;;;;;;;;;;;;;;;16.67;62.26;100334.47;4406279;32;33519;-87
2023/05/04 02:20:15;;;;;;;;;;;;;;;16.65;62.52;100329.19;4398262;32;34610;-87
2023/05/04 02:22:45;;;;;;;;;;;;;;;16.70;62.55;100323.59;4398519;32;34940;-86
2023/05/04 02:25:13;;;;;;;;;;;;;;;16.68;62.57;100331.69;4386737;32;32631;-86
2023/05/04 02:27:41;;;;;;;;;;;;;;;16.62;62.87;100326.75;4399671;32;32618;-86
2023/05/04 02:30:08;;;;;;;;;;;;;;;16.65;62.51;100330.06;4395809;32;33406;-86
2023/05/04 02:32:37;;;;;;;;;;;;;;;16.56;62.38;100325.28;4398349;32;33130;-87
2023/05/04 02:35:06;;;;;;;;;;;;;;;16.67;62.14;100322.00;4398019;32;34093;-86
2023/05/04 02:37:34;;;;;;;;;;;;;;;16.54;62.10;100324.53;4386817;32;32699;-86
2023/05/04 02:40:03;;;;;;;;;;;;;;;16.52;62.28;100326.44;4376070;32;32440;-87
2023/05/04 02:42:32;;;;;;;;;;;;;;;16.64;61.92;100320.34;4409876;32;34978;-87
2023/05/04 02:45:00;;;;;;;;;;;;;;;16.49;62.42;100336.41;4398669;32;34156;-86
2023/05/04 02:47:27;;;;;;;;;;;;;;;16.33;62.90;100324.00;4398155;32;32308;-85
2023/05/04 02:49:55;;;;;;;;;;;;;;;16.34;62.67;100327.53;4386046;32;32754;-85
2023/05/04 02:52:23;;;;;;;;;;;;;;;16.33;62.50;100320.47;4386364;32;34533;-85
2023/05/04 02:54:50;;;;;;;;;;;;;;;16.07;62.86;100333.50;4397413;32;33469;-85
2023/05/04 02:57:19;;;;;;;;;;;;;;;16.07;62.95;100327.31;4388777;32;32594;-84
2023/05/04 02:59:47;;;;;;;;;;;;;;;16.07;62.98;100330.84;4400668;32;34221;-84
2023/05/04 03:02:16;;;;;;;;;;;;;;;16.16;62.72;100328.59;4398780;32;33042;-84
2023/05/04 03:04:44;;;;;;;;;;;;;;;16.11;62.82;100336.88;4386103;32;33295;-85
2023/05/04 03:07:13;;;;;;;;;;;;;;;16.15;62.52;100334.88;4390085;32;32797;-84
2023/05/04 03:09:42;;;;;;;;;;;;;;;16.07;62.79;100330.84;4389048;32;34509;-85
2023/05/04 03:12:14;;;;;;;;;;;;;;;16.08;62.29;100340.53;4390605;32;34384;-85
2023/05/04 03:14:41;;;;;;;;;;;;;;;16.03;62.42;100339.97;4399509;32;34632;-85
2023/05/04 03:17:09;;;;;;;;;;;;;;;15.88;63.02;100341.69;4398586;32;33530;-84
2023/05/04 03:19:37;;;;;;;;;;;;;;;16.04;62.58;100341.66;4401495;32;33713;-86
2023/05/04 03:22:05;;;;;;;;;;;;;;;15.98;62.57;100342.03;4399633;32;34164;-85
2023/05/04 03:24:33;;;;;;;;;;;;;;;15.82;63.56;100343.88;4390648;32;34306;-85
2023/05/04 03:27:02;;;;;;;;;;;;;;;15.97;63.00;100345.66;4400088;32;33943;-86
2023/05/04 03:29:30;;;;;;;;;;;;;;;15.92;62.89;100342.37;4401060;32;33594;-86
2023/05/04 03:31:58;;;;;;;;;;;;;;;15.86;62.98;100348.94;4400656;32;33105;-88
2023/05/04 03:34:27;;;;;;;;;;;;;;;15.87;62.63;100352.44;4387967;32;33229;-88
2023/05/04 03:36:57;;;;;;;;;;;;;;;15.73;63.47;100350.56;4402681;32;33217;-88
2023/05/04 03:39:25;;;;;;;;;;;;;;;15.79;63.61;100342.22;4374032;32;32913;-87
2023/05/04 03:41:53;;;;;;;;;;;;;;;15.82;63.37;100352.72;4390662;32;34311;-87
2023/05/04 03:44:21;;;;;;;;;;;;;;;15.69;63.61;100348.16;4397480;32;33281;-87
2023/05/04 03:46:49;;;;;;;;;;;;;;;15.77;63.84;100346.78;4404008;32;33418;-88
2023/05/04 03:49:18;;;;;;;;;;;;;;;15.80;63.93;100351.06;4391803;32;33973;-87
2023/05/04 03:51:46;;;;;;;;;;;;;;;15.74;64.45;100359.41;4403289;32;33875;-87
2023/05/04 03:54:16;;;;;;;;;;;;;;;15.78;64.59;100353.81;4400431;32;33413;-87
2023/05/04 03:56:45;;;;;;;;;;;;;;;15.86;64.17;100353.41;4401182;32;33320;-87
2023/05/04 03:59:15;;;;;;;;;;;;;;;15.85;64.75;100356.97;4393228;32;33278;-86
2023/05/04 04:01:43;;;;;;;;;;;;;;;16.05;64.08;100359.41;4398905;32;35609;-85
2023/05/04 04:04:11;;;;;;;;;;;;;;;16.09;64.21;100358.28;4402178;32;34338;-85
2023/05/04 04:06:41;;;;;;;;;;;;;;;16.17;63.96;100365.81;4401003;32;34042;-85
2023/05/04 04:09:17;;;;;;;;;;;;;;;16.21;64.03;100353.16;4399488;32;34012;-86
2023/05/04 04:11:46;;;;;;;;;;;;;;;16.15;64.26;100356.19;4400117;32;33485;-85
2023/05/04 04:14:13;;;;;;;;;;;;;;;16.17;63.93;100357.81;4401402;32;32778;-85
2023/05/04 04:16:43;;;;;;;;;;;;;;;16.39;63.44;100366.28;4401577;32;32438;-87
2023/05/04 04:19:11;;;;;;;;;;;;;;;16.39;63.69;100355.63;4418769;32;34060;-87
2023/05/04 04:21:40;;;;;;;;;;;;;;;16.30;63.94;100357.97;4397185;32;32761;-87
2023/05/04 04:24:14;;;;;;;;;;;;;;;16.33;63.76;100358.66;4388826;32;33251;-88
2023/05/04 04:26:46;;;;;;;;;;;;;;;16.35;64.17;100363.88;4399448;32;33343;-86
2023/05/04 04:29:14;;;;;;;;;;;;;;;16.36;64.03;100360.25;4376658;32;33321;-88
2023/05/04 04:31:43;;;;;;;;;;;;;;;16.51;63.70;100361.16;4384099;32;33009;-88
2023/05/04 04:34:11;;;;;;;;;;;;;;;16.46;63.78;100369.44;4397887;32;35930;-86
2023/05/04 04:36:40;;;;;;;;;;;;;;;16.56;63.93;100367.94;4394388;32;33627;-86
2023/05/04 04:39:10;;;;;;;;;;;;;;;16.78;63.21;100358.69;4396182;32;33439;-85
2023/05/04 04:41:41;;;;;;;;;;;;;;;16.76;63.30;100363.25;4384743;32;32948;-85
2023/05/04 04:44:14;;;;;;;;;;;;;;;16.88;62.99;100366.03;4398533;32;33341;-84
2023/05/04 04:46:44;;;;;;;;;;;;;;;17.13;61.99;100359.19;4397309;32;33664;-84
2023/05/04 04:49:16;;;;;;;;;;;;;;;17.15;61.76;100370.66;4380917;32;34522;-85
2023/05/04 04:51:44;;;;;;;;;;;;;;;17.06;62.24;100366.72;4401182;32;34382;-84
2023/05/04 04:54:12;;;;;;;;;;;;;;;17.01;62.42;100366.16;4382297;32;33582;-85
2023/05/04 04:56:50;;;;;;;;;;;;;;;17.05;62.06;100367.69;4396921;32;34789;-85
2023/05/04 04:59:23;;;;;;;;;;;;;;;16.91;62.62;100374.81;4393282;32;32729;-85
2023/05/04 05:01:51;;;;;;;;;;;;;;;16.76;63.50;100371.25;4399080;32;34963;-85
2023/05/04 05:04:24;;;;;;;;;;;;;;;16.65;64.12;100378.06;4394697;32;33150;-86
2023/05/04 05:06:53;;;;;;;;;;;;;;;16.67;63.53;100372.66;4384711;32;32768;-86
2023/05/04 05:09:21;;;;;;;;;;;;;;;17.00;62.95;100375.13;4383650;32;32639;-85
2023/05/04 05:11:54;;;;;;;;;;;;;;;17.06;62.72;100374.72;4400218;32;34580;-87
2023/05/04 05:14:24;;;;;;;;;;;;;;;17.33;62.13;100365.97;4397572;32;33267;-86
2023/05/04 05:16:53;;;;;;;;;;;;;;;17.22;61.80;100379.13;4378328;32;33667;-85
2023/05/04 05:19:25;;;;;;;;;;;;;;;17.56;59.33;100377.84;4371579;32;33102;-86
2023/05/04 05:21:55;;;;;;;;;;;;;;;17.74;57.94;100381.19;4391559;32;34061;-86
2023/05/04 05:24:25;;;;;;;;;;;;;;;17.19;59.69;100382.84;4393175;32;34461;-85
2023/05/04 05:26:54;;;;;;;;;;;;;;;17.21;59.38;100385.41;4413942;32;32720;-86
2023/05/04 05:29:24;;;;;;;;;;;;;;;17.40;58.88;100383.31;4410403;32;33235;-85
2023/05/04 05:31:52;;;;;;;;;;;;;;;17.51;58.60;100383.47;4398358;32;32548;-85
2023/05/04 05:34:24;;;;;;;;;;;;;;;17.37;57.95;100380.81;4398720;32;34509;-84
2023/05/04 05:36:53;;;;;;;;;;;;;;;17.43;58.16;100383.13;4383277;32;32501;-85
2023/05/04 05:39:22;;;;;;;;;;;;;;;17.86;56.78;100385.78;4388114;32;33338;-84
2023/05/04 05:41:57;;;;;;;;;;;;;;;17.50;57.42;100383.59;4389634;32;32036;-85
2023/05/04 05:44:33;;;;;;;;;;;;;;;17.27;56.89;100382.34;4388532;32;33477;-85
2023/05/04 05:47:01;;;;;;;;;;;;;;;17.55;56.68;100387.69;4409727;32;33626;-85
2023/05/04 05:49:33;;;;;;;;;;;;;;;17.46;56.08;100388.25;4401465;32;34559;-84
2023/05/04 05:52:05;;;;;;;;;;;;;;;18.20;54.66;100373.72;4400368;32;33245;-85
2023/05/04 05:57:14;;;;;;;;;;;;;;;18.25;53.94;100384.12;4401140;32;33252;-85
2023/05/04 05:59:43;;;;;;;;;;;;;;;18.44;53.17;100384.59;4400438;32;33041;-85
2023/05/04 06:02:13;;;;;;;;;;;;;;;18.28;53.71;100386.59;4398878;32;36118;-85
2023/05/04 06:04:42;;;;;;;;;;;;;;;18.25;54.07;100393.00;4389328;32;34486;-85
2023/05/04 06:07:12;;;;;;;;;;;;;;;18.26;53.29;100393.84;4401904;32;31991;-86
2023/05/04 06:09:40;;;;;;;;;;;;;;;18.39;52.89;100394.75;4403305;32;32500;-85
2023/05/04 06:12:11;;;;;;;;;;;;;;;18.57;52.58;100393.50;4399035;32;33144;-84
2023/05/04 06:14:39;;;;;;;;;;;;;;;18.72;51.85;100388.97;4397312;32;33727;-85
2023/05/04 06:17:09;;;;;;;;;;;;;;;18.16;51.02;100385.56;4386856;32;33496;-86
2023/05/04 06:19:38;;;;;;;;;;;;;;;18.21;50.62;100394.16;4373430;32;33522;-86
2023/05/04 06:22:05;;;;;;;;;;;;;;;18.19;49.51;100387.19;4397545;32;34143;-85
2023/05/04 06:24:36;;;;;;;;;;;;;;;18.33;49.69;100389.81;4388298;32;34059;-85
2023/05/04 06:27:10;;;;;;;;;;;;;;;18.24;49.68;100396.63;4402055;32;33923;-86
2023/05/04 06:29:40;;;;;;;;;;;;;;;18.60;48.98;100404.00;4399242;32;33589;-85
2023/05/04 06:32:08;;;;;;;;;;;;;;;18.47;48.44;100399.56;4387780;32;31024;-86
2023/05/04 06:34:38;;;;;;;;;;;;;;;19.17;48.13;100392.09;4413638;32;34484;-85
2023/05/04 06:37:14;;;;;;;;;;;;;;;19.34;44.88;100398.97;4401770;32;35234;-85
2023/05/04 06:39:43;;;;;;;;;;;;;;;18.54;46.36;100404.41;4401884;32;33660;-85
2023/05/04 06:42:17;;;;;;;;;;;;;;;18.86;45.18;100404.09;4396813;32;32755;-86
2023/05/04 06:44:47;;;;;;;;;;;;;;;18.27;47.22;100419.59;4388642;32;32109;-86
2023/05/04 06:47:18;;;;;;;;;;;;;;;18.39;46.37;100411.62;4383608;32;32639;-85
2023/05/04 06:49:46;;;;;;;;;;;;;;;18.37;46.98;100410.00;4255653;32;4566757;-83
2023/05/04 06:52:15;;;;;;;;;;;;;;;18.24;46.56;100411.81;4389238;32;32777;-85
2023/05/04 06:54:43;;;;;;;;;;;;;;;18.24;46.58;100409.13;4390654;32;32065;-86
2023/05/04 06:57:10;;;;;;;;;;;;;;;18.39;47.07;100410.78;4399819;32;32944;-86
2023/05/04 06:59:38;;;;;;;;;;;;;;;18.64;46.89;100410.84;4402075;32;34206;-86
2023/05/04 07:02:06;;;;;;;;;;;;;;;18.65;46.87;100411.69;4399736;32;34368;-86
2023/05/04 07:04:36;;;;;;;;;;;;;;;18.89;46.51;100410.06;4396999;32;33069;-86
2023/05/04 07:07:04;;;;;;;;;;;;;;;18.57;47.00;100414.06;4400546;32;33300;-85
2023/05/04 07:09:34;;;;;;;;;;;;;;;18.98;47.00;100413.94;4397802;32;33696;-86
2023/05/04 07:12:03;;;;;;;;;;;;;;;19.69;45.88;100402.66;4402084;32;34838;-86
2023/05/04 07:14:33;;;;;;;;;;;;;;;20.27;44.14;100394.00;4402633;32;34805;-86
2023/05/04 07:17:01;;;;;;;;;;;;;;;20.24;44.56;100400.47;4388656;32;33279;-86
2023/05/04 07:19:31;;;;;;;;;;;;;;;20.34;44.60;100396.13;4389983;32;33201;-84
2023/05/04 07:22:01;;;;;;;;;;;;;;;19.85;43.75;100410.47;4395253;32;33516;-87
2023/05/04 07:24:29;;;;;;;;;;;;;;;20.12;44.46;100396.00;4397844;32;33911;-85
2023/05/04 07:26:58;;;;;;;;;;;;;;;20.32;42.94;100389.16;4390598;32;32304;-84
2023/05/04 07:29:26;;;;;;;;;;;;;;;20.99;44.01;100394.78;4385499;32;33206;-85
2023/05/04 07:31:58;;;;;;;;;;;;;;;21.04;44.15;100395.28;4393115;32;35525;-85
2023/05/04 07:34:30;;;;;;;;;;;;;;;21.16;42.77;100396.16;4399138;32;34315;-85
2023/05/04 07:37:12;;;;;;;;;;;;;;;20.94;43.27;100399.66;4396305;32;32741;-84
2023/05/04 07:42:22;;;;;;;;;;;;;;;21.34;41.50;100401.94;4394970;32;34519;-81
2023/05/04 07:44:51;;;;;;;;;;;;;;;21.35;42.27;100399.13;4396558;32;33626;-83
2023/05/04 07:47:18;;;;;;;;;;;;;;;21.12;43.42;100397.34;4389961;32;32033;-81
2023/05/04 07:49:47;;;;;;;;;;;;;;;21.29;42.88;100391.53;4383831;32;33236;-83
2023/05/04 07:52:15;;;;;;;;;;;;;;;21.46;41.58;100387.56;4386261;32;33442;-84
2023/05/04 07:54:43;;;;;;;;;;;;;;;21.55;41.73;100391.31;4403793;32;35147;-84
2023/05/04 07:57:11;;;;;;;;;;;;;;;21.93;41.17;100389.09;4401058;32;33508;-86
2023/05/04 07:59:41;;;;;;;;;;;;;;;21.71;41.66;100398.03;4397860;32;35430;-83
2023/05/04 08:02:12;;;;;;;;;;;;;;;21.94;40.36;100392.63;4407284;32;34817;-83
2023/05/04 08:04:45;;;;;;;;;;;;;;;21.93;40.62;100393.56;4395671;32;34051;-84
2023/05/04 08:07:15;;;;;;;;;;;;;;;21.91;39.76;100392.87;4383498;32;32635;-83
2023/05/04 08:09:44;;;;;;;;;;;;;;;21.84;39.46;100391.62;4383942;32;34174;-84
2023/05/04 08:12:17;;;;;;;;;;;;;;;21.65;41.89;100390.47;4401644;32;35078;-84
2023/05/04 08:14:50;;;;;;;;;;;;;;;21.71;40.06;100392.66;4404502;32;34763;-84
2023/05/04 08:17:17;;;;;;;;;;;;;;;21.99;39.62;100393.09;4392667;32;32821;-82
2023/05/04 08:19:47;;;;;;;;;;;;;;;21.94;40.64;100392.63;4394876;32;34815;-82
2023/05/04 08:22:16;;;;;;;;;;;;;;;21.95;40.57;100400.56;4407464;32;34234;-82
2023/05/04 08:24:46;;;;;;;;;;;;;;;21.14;42.30;100395.44;4402830;32;33951;-83
2023/05/04 08:27:16;;;;;;;;;;;;;;;21.88;42.24;100409.22;4397649;32;33836;-83
2023/05/04 08:29:46;;;;;;;;;;;;;;;22.07;41.20;100404.06;4394483;32;34025;-83
2023/05/04 08:32:14;;;;;;;;;;;;;;;22.40;40.61;100411.22;4403802;32;33005;-84
2023/05/04 08:34:43;;;;;;;;;;;;;;;21.44;40.87;100411.81;4415311;32;33337;-84
2023/05/04 08:37:13;;;;;;;;;;;;;;;21.59;41.02;100407.06;4395265;32;33750;-83
2023/05/04 08:39:53;;;;;;;;;;;;;;;21.87;40.40;100412.91;4397957;32;35258;-84
2023/05/04 08:45:04;;;;;;;;;;;;;;;22.80;39.96;100405.19;4396520;32;33569;-84
2023/05/04 08:47:33;;;;;;;;;;;;;;;23.05;40.53;100395.88;4397731;32;32788;-84
2023/05/04 08:50:06;;;;;;;;;;;;;;;22.81;38.28;100400.63;4396361;32;32643;-84
2023/05/04 08:52:35;;;;;;;;;;;;;;;23.17;39.44;100397.50;4384651;32;35062;-84
2023/05/04 08:55:05;;;;;;;;;;;;;;;23.19;38.61;100395.53;4394786;32;34073;-84
2023/05/04 08:57:34;;;;;;;;;;;;;;;22.41;39.24;100398.62;4399350;32;33497;-84
2023/05/04 09:00:04;;;;;;;;;;;;;;;23.12;39.39;100391.66;4394977;32;33049;-84
2023/05/04 09:02:32;;;;;;;;;;;;;;;22.84;39.37;100405.78;4385466;32;32976;-84
2023/05/04 09:05:02;;;;;;;;;;;;;;;23.40;38.41;100395.47;4398177;32;32910;-84
2023/05/04 09:07:31;;;;;;;;;;;;;;;23.12;38.33;100388.97;4383961;32;32652;-84
2023/05/04 09:09:59;;;;;;;;;;;;;;;23.08;38.20;100395.63;4396391;32;32136;-85
2023/05/04 09:12:30;;;;;;;;;;;;;;;23.61;37.83;100395.44;4386402;32;33771;-84
2023/05/04 09:15:04;;;;;;;;;;;;;;;24.36;37.77;100394.13;4386300;32;34390;-84
2023/05/04 09:17:34;;;;;;;;;;;;;;;23.74;37.41;100389.84;4394935;32;33096;-86
2023/05/04 09:20:17;;;;;;;;;;;;;;;24.40;36.34;100381.16;4414394;32;32874;-84
2023/05/04 09:22:45;;;;;;;;;;;;;;;23.77;38.06;100392.25;4384703;32;32408;-82
2023/05/04 09:25:13;;;;;;;;;;;;;;;24.01;37.61;100390.03;4402342;32;33190;-83
2023/05/04 09:27:51;;;;;;;;;;;;;;;24.04;38.71;100385.38;4391136;32;32822;-83
2023/05/04 09:30:22;;;;;;;;;;;;;;;24.06;37.84;100380.69;4397489;32;33473;-82
2023/05/04 09:32:52;;;;;;;;;;;;;;;24.24;38.72;100387.09;4395671;32;33579;-83
2023/05/04 09:35:29;;;;;;;;;;;;;;;24.07;37.70;100387.78;4395270;32;35134;-83
2023/05/04 09:38:00;;;;;;;;;;;;;;;23.79;38.25;100382.19;4392761;32;32296;-82
2023/05/04 09:40:31;;;;;;;;;;;;;;;23.65;38.36;100386.13;4394314;32;33411;-83
2023/05/04 09:43:01;;;;;;;;;;;;;;;23.60;38.71;100380.25;4409764;32;34776;-82
2023/05/04 09:45:40;;;;;;;;;;;;;;;23.67;38.51;100378.75;4381694;32;34754;-83
2023/05/04 09:48:17;;;;;;;;;;;;;;;23.69;38.08;100382.16;4398418;32;33536;-83
2023/05/04 09:50:49;;;;;;;;;;;;;;;23.56;37.22;100376.13;4396512;32;34560;-83
2023/05/04 09:53:19;;;;;;;;;;;;;;;23.40;39.23;100370.38;4398771;32;34099;-82
2023/05/04 09:55:50;;;;;;;;;;;;;;;23.36;37.68;100375.19;4398143;32;33977;-83
2023/05/04 09:58:18;;;;;;;;;;;;;;;23.38;38.87;100370.50;4377931;32;33605;-83
2023/05/04 10:00:46;;;;;;;;;;;;;;;23.02;39.68;100369.19;4394663;32;34879;-83
2023/05/04 10:03:20;;;;;;;;;;;;;;;23.66;37.57;100370.81;4390339;32;33486;-82
2023/05/04 10:05:49;;;;;;;;;;;;;;;23.34;40.46;100360.13;4407715;32;34641;-83
2023/05/04 10:08:18;;;;;;;;;;;;;;;23.32;40.95;100368.38;4395817;32;34021;-83
2023/05/04 10:10:47;;;;;;;;;;;;;;;23.03;42.28;100362.00;4386313;32;34361;-83
2023/05/04 10:13:16;;;;;;;;;;;;;;;22.86;42.77;100363.41;4399551;32;35794;-83
2023/05/04 10:15:50;;;;;;;;;;;;;;;22.78;43.73;100363.19;4398492;32;33509;-83
2023/05/04 10:21:43;;;;;;;;;;;;;;;22.77;42.89;100361.50;4404318;32;33880;-83
2023/05/04 10:24:14;;;;;;;;;;;;;;;23.38;42.21;100353.50;4349106;32;34458;-83
2023/05/04 10:26:49;;;;;;;;;;;;;;;23.37;42.35;100354.50;4400565;32;33445;-83
2023/05/04 10:29:21;;;;;;;;;;;;;;;23.76;39.51;100356.34;4408994;32;33326;-83
2023/05/04 10:31:53;;;;;;;;;;;;;;;23.35;40.44;100345.66;4399945;32;33248;-83
2023/05/04 10:34:29;;;;;;;;;;;;;;;23.18;40.67;100345.34;4401813;32;32916;-83
2023/05/04 10:36:58;;;;;;;;;;;;;;;23.07;41.87;100340.00;4400025;32;32927;-82
2023/05/04 10:39:28;;;;;;;;;;;;;;;22.86;41.68;100344.56;4389492;32;31921;-83
2023/05/04 10:42:04;;;;;;;;;;;;;;;22.56;42.43;100354.28;4401849;32;34519;-83
2023/05/04 10:44:34;;;;;;;;;;;;;;;22.80;41.86;100337.88;4388757;32;33729;-83
2023/05/04 10:47:04;;;;;;;;;;;;;;;23.27;40.09;100334.75;4385997;32;34425;-83
2023/05/04 10:49:34;;;;;;;;;;;;;;;23.34;40.05;100333.19;4398439;32;33674;-83
2023/05/04 10:52:05;;;;;;;;;;;;;;;23.85;40.56;100333.09;4400454;32;33524;-83
2023/05/04 10:54:35;;;;;;;;;;;;;;;23.95;39.14;100333.09;4397030;32;33971;-83
2023/05/04 10:57:11;;;;;;;;;;;;;;;24.26;39.15;100326.59;4399013;32;34927;-83
2023/05/04 10:59:48;;;;;;;;;;;;;;;24.77;37.63;100320.03;4400893;32;33123;-83
2023/05/04 11:02:21;;;;;;;;;;;;;;;24.51;37.51;100313.56;4396473;32;32895;-83
2023/05/04 11:04:56;;;;;;;;;;;;;;;24.68;37.04;100312.78;4399608;32;34306;-83
2023/05/04 11:07:33;;;;;;;;;;;;;;;24.99;36.44;100312.59;4398384;32;33483;-82
2023/05/04 11:10:04;;;;;;;;;;;;;;;24.65;37.48;100304.16;4400367;32;31903;-83
2023/05/04 11:12:34;;;;;;;;;;;;;;;24.87;36.73;100308.34;4387828;32;33954;-83
2023/05/04 11:15:11;;;;;;;;;;;;;;;24.89;36.11;100303.66;4399692;32;34088;-83
2023/05/04 11:17:45;;;;;;;;;;;;;;;24.62;35.70;100302.56;4388804;32;33520;-84
2023/05/04 11:20:24;;;;;;;;;;;;;;;25.31;35.50;100296.00;4386301;32;34359;-83
2023/05/04 11:22:53;;;;;;;;;;;;;;;24.64;35.78;100292.50;4393163;32;34734;-83
2023/05/04 11:25:29;;;;;;;;;;;;;;;25.04;36.01;100294.91;4384600;32;33867;-84
2023/05/04 11:27:58;;;;;;;;;;;;;;;25.05;35.88;100287.66;4384373;32;33380;-83
2023/05/04 11:30:32;;;;;;;;;;;;;;;25.08;36.32;100287.41;4405655;32;33198;-83
2023/05/04 11:33:04;;;;;;;;;;;;;;;25.29;37.16;100288.00;4384550;32;33334;-84
2023/05/04 11:35:34;;;;;;;;;;;;;;;25.22;38.13;100286.94;4400116;32;34794;-83
2023/05/04 11:38:02;;;;;;;;;;;;;;;25.26;38.07;100284.78;4401646;32;33031;-84
2023/05/04 11:40:30;;;;;;;;;;;;;;;24.43;39.28;100281.00;4398916;32;33571;-83
2023/05/04 11:43:01;;;;;;;;;;;;;;;23.97;40.13;100288.81;4385993;32;33999;-84
2023/05/04 11:45:37;;;;;;;;;;;;;;;24.51;38.92;100281.16;4398201;32;35011;-83
2023/05/04 11:48:07;;;;;;;;;;;;;;;24.77;39.10;100281.34;4394872;32;33461;-83
2023/05/04 11:50:37;;;;;;;;;;;;;;;24.22;39.77;100282.00;4387692;32;33721;-83
2023/05/04 11:53:07;;;;;;;;;;;;;;;24.04;40.43;100285.56;4397915;32;33918;-83
2023/05/04 11:55:38;;;;;;;;;;;;;;;24.01;40.98;100283.97;4391748;32;34817;-83
2023/05/04 11:58:09;;;;;;;;;;;;;;;23.37;41.86;100284.44;4395699;32;34150;-83
2023/05/04 12:00:44;;;;;;;;;;;;;;;23.50;41.84;100282.34;4384694;32;32730;-83
2023/05/04 12:03:13;;;;;;;;;;;;;;;23.58;42.35;100277.09;4374632;32;33216;-83
2023/05/04 12:05:55;;;;;;;;;;;;;;;23.31;42.91;100280.44;4397267;32;34039;-83
2023/05/04 12:08:25;;;;;;;;;;;;;;;23.73;42.57;100278.41;4394907;32;34831;-84
2023/05/04 12:11:15;;;;;;;;;;;;;;;23.67;42.88;100284.37;4397814;32;32843;-84
2023/05/04 12:13:46;;;;;;;;;;;;;;;23.38;43.34;100286.97;4393753;32;32939;-83
2023/05/04 12:16:19;;;;;;;;;;;;;;;23.80;43.07;100275.19;4412059;32;34990;-83
2023/05/04 12:18:47;;;;;;;;;;;;;;;23.54;42.11;100280.19;4396375;32;34567;-83
2023/05/04 12:21:18;;;;;;;;;;;;;;;23.44;42.17;100278.34;4397174;32;33562;-83
2023/05/04 12:23:47;;;;;;;;;;;;;;;23.93;42.18;100267.69;4383393;32;32859;-84
2023/05/04 12:26:15;;;;;;;;;;;;;;;24.17;41.49;100268.09;4401119;32;32722;-83
2023/05/04 12:28:52;;;;;;;;;;;;;;;23.88;40.98;100269.91;4389301;32;34276;-84
2023/05/04 12:31:22;;;;;;;;;;;;;;;24.23;40.59;100264.81;4393228;32;32664;-83
2023/05/04 12:33:53;;;;;;;;;;;;;;;24.42;41.08;100255.88;4400199;32;33537;-84
2023/05/04 12:36:23;;;;;;;;;;;;;;;24.54;40.67;100251.16;4378285;32;32516;-83
2023/05/04 12:38:53;;;;;;;;;;;;;;;25.18;39.84;100244.97;4398085;32;33995;-83
2023/05/04 12:41:22;;;;;;;;;;;;;;;25.02;39.50;100252.88;4398008;32;33225;-83
2023/05/04 12:43:50;;;;;;;;;;;;;;;25.31;37.70;100254.59;4392395;32;33766;-84
2023/05/04 12:46:21;;;;;;;;;;;;;;;25.75;38.00;100245.66;4400510;32;34244;-84
2023/05/04 12:48:56;;;;;;;;;;;;;;;25.71;39.13;100246.06;4398432;32;35774;-83
2023/05/04 12:51:25;;;;;;;;;;;;;;;25.37;37.27;100251.28;4395738;32;33186;-84
2023/05/04 12:54:03;;;;;;;;;;;;;;;25.54;37.89;100239.63;4398448;32;33696;-84
2023/05/04 12:56:34;;;;;;;;;;;;;;;25.70;37.65;100237.09;4395246;32;35020;-84
2023/05/04 12:59:04;;;;;;;;;;;;;;;25.40;38.08;100241.03;4392880;32;34394;-84
2023/05/04 13:01:39;;;;;;;;;;;;;;;25.49;37.82;100236.53;4398572;32;33602;-83